createdAt,value
2022-11-23T00:01:20.566Z,3.65
2022-11-23T00:03:48.769Z,3.50
2022-11-23T00:06:16.389Z,3.40
2022-11-23T00:08:43.753Z,3.78
2022-11-23T00:11:11.000Z,3.38
2022-11-23T00:13:40.484Z,3.05
2022-11-23T00:16:08.674Z,3.25
2022-11-23T00:18:35.812Z,3.17
2022-11-23T00:21:10.100Z,3.20
2022-11-23T00:23:37.605Z,3.15
2022-11-23T00:26:05.184Z,3.08
2022-11-23T00:28:32.665Z,3.15
2022-11-23T00:30:59.770Z,3.33
2022-11-23T00:33:26.947Z,3.17
2022-11-23T00:36:04.267Z,3.00
2022-11-23T00:38:31.422Z,3.45
2022-11-23T00:41:02.474Z,3.10
2022-11-23T00:43:30.113Z,3.10
2022-11-23T00:46:07.523Z,3.10
2022-11-23T00:48:34.728Z,3.13
2022-11-23T00:51:02.673Z,3.40
2022-11-23T00:53:29.814Z,2.95
2022-11-23T00:55:57.773Z,3.08
2022-11-23T00:58:25.384Z,3.00
2022-11-23T01:01:00.479Z,2.80
2022-11-23T01:03:27.702Z,2.80
2022-11-23T01:05:54.949Z,2.83
2022-11-23T01:08:22.058Z,2.85
2022-11-23T01:10:49.203Z,2.78
2022-11-23T01:13:16.352Z,2.50
2022-11-23T01:15:49.728Z,2.60
2022-11-23T01:18:16.829Z,2.70
2022-11-23T01:20:43.932Z,2.65
2022-11-23T01:23:11.087Z,3.08
2022-11-23T01:25:38.297Z,2.58
2022-11-23T01:28:05.574Z,2.60
2022-11-23T01:30:34.339Z,2.53
2022-11-23T01:33:01.503Z,2.97
2022-11-23T01:35:28.837Z,2.60
2022-11-23T01:37:56.370Z,2.90
2022-11-23T01:40:23.812Z,2.70
2022-11-23T01:42:58.716Z,3.05
2022-11-23T01:45:39.681Z,3.20
2022-11-23T01:48:10.487Z,2.50
2022-11-23T01:50:37.975Z,2.42
2022-11-23T01:53:05.281Z,2.78
2022-11-23T01:55:32.551Z,2.90
2022-11-23T01:58:00.237Z,2.70
2022-11-23T02:00:27.460Z,2.70
2022-11-23T02:02:57.170Z,2.60
2022-11-23T02:05:28.124Z,2.40
2022-11-23T02:07:55.283Z,2.30
2022-11-23T02:10:23.450Z,2.50
2022-11-23T02:12:50.653Z,2.60
2022-11-23T02:15:18.009Z,2.20
2022-11-23T02:17:45.478Z,2.30
2022-11-23T02:20:14.285Z,2.75
2022-11-23T02:22:41.412Z,2.60
2022-11-23T02:25:11.829Z,2.67
2022-11-23T02:27:43.955Z,2.30
2022-11-23T02:30:13.917Z,2.72
2022-11-23T02:32:41.078Z,2.85
2022-11-23T02:35:10.239Z,2.95
2022-11-23T02:37:37.664Z,2.53
2022-11-23T02:40:10.551Z,2.83
2022-11-23T02:42:39.098Z,2.47
2022-11-23T02:45:09.522Z,2.22
2022-11-23T02:47:36.620Z,2.67
2022-11-23T02:50:03.961Z,2.78
2022-11-23T02:52:31.116Z,2.45
2022-11-23T02:54:58.294Z,2.50
2022-11-23T02:57:25.451Z,2.10
2022-11-23T02:59:52.640Z,2.45
2022-11-23T03:02:19.787Z,2.28
2022-11-23T03:04:47.170Z,2.20
2022-11-23T03:07:14.374Z,2.50
2022-11-23T03:09:42.743Z,2.13
2022-11-23T03:12:09.971Z,2.50
2022-11-23T03:14:38.736Z,2.17
2022-11-23T03:17:05.891Z,2.47
2022-11-23T03:19:33.267Z,1.95
2022-11-23T03:22:00.528Z,1.92
2022-11-23T03:24:27.681Z,2.28
2022-11-23T03:26:54.808Z,2.33
2022-11-23T03:29:26.284Z,2.47
2022-11-23T03:31:54.124Z,2.45
2022-11-23T03:34:21.276Z,2.10
2022-11-23T03:36:48.478Z,2.22
2022-11-23T03:39:15.613Z,2.42
2022-11-23T03:41:42.758Z,2.13
2022-11-23T03:44:09.961Z,2.50
2022-11-23T03:46:37.124Z,2.13
2022-11-23T03:49:04.500Z,2.30
2022-11-23T03:51:31.633Z,2.33
2022-11-23T03:53:58.758Z,2.20
2022-11-23T03:56:25.960Z,2.20
2022-11-23T03:58:53.129Z,2.70
2022-11-23T04:01:20.344Z,1.83
2022-11-23T04:03:47.500Z,1.75
2022-11-23T04:06:14.696Z,1.50
2022-11-23T04:08:42.142Z,2.30
2022-11-23T04:11:09.285Z,1.98
2022-11-23T04:13:37.122Z,2.20
2022-11-23T04:16:04.328Z,1.90
2022-11-23T04:18:31.443Z,2.00
2022-11-23T04:20:58.703Z,1.95
2022-11-23T04:23:25.877Z,1.92
2022-11-23T04:25:52.996Z,1.85
2022-11-23T04:28:20.123Z,1.98
2022-11-23T04:30:47.278Z,2.00
2022-11-23T04:33:14.432Z,1.90
2022-11-23T04:35:41.565Z,2.05
2022-11-23T04:38:08.722Z,2.10
2022-11-23T04:40:35.931Z,1.92
2022-11-23T04:43:03.157Z,1.80
2022-11-23T04:45:33.687Z,1.95
2022-11-23T04:48:00.783Z,2.08
2022-11-23T04:50:27.927Z,1.90
2022-11-23T04:52:55.113Z,1.75
2022-11-23T04:55:22.271Z,1.63
2022-11-23T04:57:49.425Z,1.70
2022-11-23T05:00:16.781Z,1.65
2022-11-23T05:02:44.291Z,1.70
2022-11-23T05:05:11.652Z,1.80
2022-11-23T05:07:38.823Z,1.55
2022-11-23T05:10:06.268Z,1.90
2022-11-23T05:12:33.407Z,1.88
2022-11-23T05:15:00.509Z,1.70
2022-11-23T05:17:27.711Z,1.70
2022-11-23T05:19:56.155Z,1.80
2022-11-23T05:22:23.313Z,1.58
2022-11-23T05:24:50.457Z,1.70
2022-11-23T05:27:17.722Z,1.70
2022-11-23T05:29:44.868Z,2.00
2022-11-23T05:32:12.043Z,1.45
2022-11-23T05:34:39.209Z,1.70
2022-11-23T05:37:06.331Z,1.65
2022-11-23T05:39:34.049Z,2.05
2022-11-23T05:42:01.524Z,1.58
2022-11-23T05:44:28.660Z,1.60
2022-11-23T05:46:55.793Z,1.80
2022-11-23T05:49:22.919Z,1.60
2022-11-23T05:51:50.128Z,1.50
2022-11-23T05:54:17.319Z,1.60
2022-11-23T05:56:44.452Z,1.85
2022-11-23T05:59:14.712Z,1.65
2022-11-23T06:01:41.875Z,1.90
2022-11-23T06:04:09.128Z,1.70
2022-11-23T06:06:36.325Z,1.95
2022-11-23T06:09:03.561Z,1.77
2022-11-23T06:11:31.943Z,1.80
2022-11-23T06:13:59.225Z,2.20
2022-11-23T06:16:26.418Z,2.47
2022-11-23T06:18:53.768Z,2.20
2022-11-23T06:21:20.910Z,2.30
2022-11-23T06:23:48.477Z,2.00
2022-11-23T06:26:15.741Z,2.10
2022-11-23T06:28:43.146Z,2.42
2022-11-23T06:31:10.627Z,2.35
2022-11-23T06:33:39.151Z,2.25
2022-11-23T06:36:06.499Z,2.15
2022-11-23T06:38:33.936Z,2.80
2022-11-23T06:41:01.780Z,3.30
2022-11-23T06:43:29.290Z,2.90
2022-11-23T06:45:56.564Z,3.58
2022-11-23T06:48:24.125Z,3.75
2022-11-23T06:50:51.523Z,4.45
2022-11-23T06:53:19.010Z,3.35
2022-11-23T06:55:46.218Z,3.30
2022-11-23T06:58:13.417Z,4.43
2022-11-23T07:00:40.524Z,2.80
2022-11-23T07:03:07.813Z,3.83
2022-11-23T07:05:35.555Z,2.90
2022-11-23T07:08:02.694Z,2.47
2022-11-23T07:10:29.885Z,2.75
2022-11-23T07:13:03.390Z,3.10
2022-11-23T07:15:30.542Z,3.58
2022-11-23T07:17:57.693Z,3.17
2022-11-23T07:20:25.257Z,3.45
2022-11-23T07:23:05.669Z,3.38
2022-11-23T07:25:33.759Z,4.00
2022-11-23T07:28:01.442Z,3.42
2022-11-23T07:30:29.836Z,3.45
2022-11-23T07:33:03.917Z,2.85
2022-11-23T07:35:32.029Z,2.92
2022-11-23T07:37:59.928Z,3.05
2022-11-23T07:40:27.482Z,3.33
2022-11-23T07:42:59.679Z,3.00
2022-11-23T07:45:26.885Z,3.03
2022-11-23T07:47:59.956Z,2.70
2022-11-23T07:50:27.496Z,3.47
2022-11-23T07:52:54.847Z,3.28
2022-11-23T07:55:22.059Z,3.30
2022-11-23T07:57:52.139Z,3.00
2022-11-23T08:00:20.280Z,2.97
2022-11-23T08:03:11.447Z,3.35
2022-11-23T08:05:35.741Z,3.13
2022-11-23T08:08:03.306Z,2.70
2022-11-23T08:10:30.996Z,2.95
2022-11-23T08:12:59.155Z,2.70
2022-11-23T08:15:28.169Z,2.83
2022-11-23T08:18:15.616Z,3.00
2022-11-23T08:20:42.778Z,2.97
2022-11-23T08:23:10.058Z,3.55
2022-11-23T08:25:37.213Z,3.08
2022-11-23T08:28:05.132Z,3.00
2022-11-23T08:30:32.812Z,2.65
2022-11-23T08:33:00.059Z,3.45
2022-11-23T08:35:27.452Z,3.15
2022-11-23T08:37:54.593Z,3.03
2022-11-23T08:40:25.416Z,2.80
2022-11-23T08:42:53.152Z,3.65
2022-11-23T08:45:20.334Z,3.20
2022-11-23T08:47:47.707Z,3.00
2022-11-23T08:50:15.054Z,3.00
2022-11-23T08:52:42.236Z,3.00
2022-11-23T08:55:09.792Z,3.40
2022-11-23T08:57:36.983Z,3.50
2022-11-23T09:00:04.815Z,3.50
2022-11-23T09:02:31.998Z,3.45
2022-11-23T09:04:59.284Z,3.63
2022-11-23T09:07:26.470Z,3.20
2022-11-23T09:09:53.718Z,3.30
2022-11-23T09:12:20.902Z,3.22
2022-11-23T09:14:48.026Z,3.53
2022-11-23T09:17:15.200Z,3.22
2022-11-23T09:19:42.600Z,4.05
2022-11-23T09:22:09.752Z,6.22
2022-11-23T09:24:37.475Z,6.38
2022-11-23T09:27:04.860Z,6.22
2022-11-23T09:29:32.038Z,6.47
2022-11-23T09:31:59.181Z,6.13
2022-11-23T09:34:26.326Z,7.10
2022-11-23T09:36:53.468Z,6.57
2022-11-23T09:39:20.607Z,6.75
2022-11-23T09:41:57.076Z,5.80
2022-11-23T09:44:24.193Z,5.75
2022-11-23T09:47:00.406Z,5.70
2022-11-23T09:49:47.790Z,5.72
2022-11-23T09:52:17.511Z,5.32
2022-11-23T09:54:46.116Z,5.75
2022-11-23T09:57:15.658Z,5.70
2022-11-23T09:59:42.908Z,5.60
2022-11-23T10:02:31.582Z,5.55
2022-11-23T10:05:00.519Z,6.82
2022-11-23T10:07:43.077Z,6.07
2022-11-23T10:10:22.470Z,5.40
2022-11-23T10:12:55.126Z,5.47
2022-11-23T10:15:27.614Z,5.65
2022-11-23T10:18:03.852Z,5.80
2022-11-23T10:20:50.408Z,5.95
2022-11-23T10:23:32.715Z,5.47
2022-11-23T10:26:00.333Z,6.22
2022-11-23T10:28:29.950Z,5.65
2022-11-23T10:31:17.483Z,5.30
2022-11-23T10:33:56.055Z,6.05
2022-11-23T10:36:23.214Z,6.00
2022-11-23T10:38:51.778Z,6.07
2022-11-23T10:41:19.006Z,4.78
2022-11-23T10:43:49.007Z,5.55
2022-11-23T10:46:31.075Z,5.88
2022-11-23T10:49:09.781Z,5.57
2022-11-23T10:51:38.287Z,5.63
2022-11-23T10:54:07.082Z,5.05
2022-11-23T10:56:35.019Z,5.10
2022-11-23T10:59:02.195Z,5.38
2022-11-23T11:01:30.389Z,6.82
2022-11-23T11:04:03.815Z,6.10
2022-11-23T11:06:33.626Z,6.20
2022-11-23T11:09:09.554Z,6.28
2022-11-23T11:11:40.416Z,5.72
2022-11-23T11:14:15.356Z,6.10
2022-11-23T11:16:49.874Z,6.37
2022-11-23T11:19:29.413Z,5.85
2022-11-23T11:21:57.773Z,5.47
2022-11-23T11:24:44.149Z,5.78
2022-11-23T11:27:16.197Z,5.72
2022-11-23T11:29:46.447Z,11.52
2022-11-23T11:32:19.374Z,17.80
2022-11-23T11:34:54.576Z,24.75
2022-11-23T11:37:36.213Z,24.08
2022-11-23T11:40:03.314Z,21.58
2022-11-23T11:42:36.768Z,20.17
2022-11-23T11:45:05.828Z,20.52
2022-11-23T11:47:37.493Z,18.38
2022-11-23T11:50:15.811Z,17.67
2022-11-23T11:52:44.143Z,16.30
2022-11-23T11:55:18.511Z,16.67
2022-11-23T11:57:52.178Z,15.45
2022-11-23T12:00:20.484Z,15.05
2022-11-23T12:03:00.462Z,16.33
2022-11-23T12:05:34.753Z,20.48
2022-11-23T12:08:01.888Z,19.13
2022-11-23T12:10:31.122Z,18.02
2022-11-23T12:12:58.726Z,17.50
2022-11-23T12:18:24.816Z,16.00
2022-11-23T12:21:00.709Z,14.77
2022-11-23T12:26:04.578Z,19.92
2022-11-23T12:28:42.571Z,19.98
2022-11-23T12:31:21.973Z,20.65
2022-11-23T12:34:00.993Z,17.80
2022-11-23T12:36:51.500Z,18.27
2022-11-23T12:39:44.822Z,18.63
2022-11-23T12:42:20.922Z,17.42
2022-11-23T12:44:54.110Z,16.15
2022-11-23T12:47:30.585Z,18.13
2022-11-23T12:50:10.334Z,15.32
2022-11-23T12:52:56.137Z,16.73
2022-11-23T12:55:23.235Z,17.33
2022-11-23T12:57:50.331Z,16.50
2022-11-23T13:00:21.627Z,16.02
2022-11-23T13:02:54.815Z,15.63
2022-11-23T13:05:40.437Z,18.80
2022-11-23T13:08:13.542Z,23.00
2022-11-23T13:10:41.080Z,23.77
2022-11-23T13:13:15.847Z,22.35
2022-11-23T13:15:43.538Z,21.38
2022-11-23T13:18:19.594Z,20.90
2022-11-23T13:21:13.133Z,19.63
2022-11-23T13:23:40.842Z,19.50
2022-11-23T13:26:18.867Z,20.42
2022-11-23T13:28:50.027Z,17.65
2022-11-23T13:31:17.275Z,16.27
2022-11-23T13:33:45.418Z,17.95
2022-11-23T13:36:18.472Z,16.63
2022-11-23T13:38:47.024Z,16.75
2022-11-23T13:41:49.830Z,16.88
2022-11-23T13:44:19.696Z,16.40
2022-11-23T13:47:07.211Z,15.23
2022-11-23T13:49:37.215Z,15.63
2022-11-23T13:52:05.751Z,15.65
2022-11-23T13:54:33.452Z,14.43
2022-11-23T13:57:06.195Z,14.48
2022-11-23T13:59:34.919Z,13.77
2022-11-23T14:02:08.151Z,13.90
2022-11-23T14:04:46.852Z,13.75
2022-11-23T14:07:19.471Z,13.35
2022-11-23T14:09:50.190Z,13.30
2022-11-23T14:12:36.123Z,14.07
2022-11-23T14:15:35.874Z,15.55
2022-11-23T14:18:25.318Z,16.30
2022-11-23T14:20:59.927Z,16.38
2022-11-23T14:23:33.107Z,15.93
2022-11-23T14:26:29.595Z,16.35
2022-11-23T14:28:56.894Z,16.38
2022-11-23T14:31:39.432Z,16.15
2022-11-23T14:34:16.113Z,15.77
2022-11-23T14:37:02.108Z,14.48
2022-11-23T14:39:48.056Z,15.35
2022-11-23T14:42:16.310Z,15.10
2022-11-23T14:44:44.990Z,14.40
2022-11-23T14:47:12.697Z,13.80
2022-11-23T14:49:52.659Z,14.82
2022-11-23T14:52:24.301Z,14.73
2022-11-23T14:54:52.192Z,13.40
2022-11-23T14:57:24.132Z,13.32
2022-11-23T14:59:54.208Z,13.13
2022-11-23T15:02:41.332Z,13.27
2022-11-23T15:05:24.021Z,13.57
2022-11-23T15:07:54.185Z,12.50
2022-11-23T15:10:36.661Z,12.48
2022-11-23T15:13:03.800Z,12.13
2022-11-23T15:15:33.914Z,13.20
2022-11-23T15:18:02.670Z,13.15
2022-11-23T15:20:34.228Z,14.10
2022-11-23T15:23:01.793Z,12.18
2022-11-23T15:25:29.856Z,12.07
2022-11-23T15:27:57.125Z,13.02
2022-11-23T15:30:28.850Z,12.73
2022-11-23T15:32:57.520Z,12.35
2022-11-23T15:35:26.643Z,12.65
2022-11-23T15:37:54.003Z,11.90
2022-11-23T15:40:21.330Z,12.18
2022-11-23T15:42:51.046Z,12.13
2022-11-23T15:45:36.676Z,11.48
2022-11-23T15:48:05.092Z,10.73
2022-11-23T15:50:34.285Z,11.38
2022-11-23T15:53:02.050Z,11.48
2022-11-23T15:55:30.419Z,11.02
2022-11-23T15:57:57.964Z,10.95
2022-11-23T16:00:26.552Z,12.45
2022-11-23T16:02:53.956Z,11.32
2022-11-23T16:05:22.711Z,10.98
2022-11-23T16:08:10.100Z,10.90
2022-11-23T16:10:53.489Z,11.20
2022-11-23T16:13:34.849Z,10.07
2022-11-23T16:16:04.338Z,10.80
2022-11-23T16:18:32.667Z,10.00
2022-11-23T16:21:01.484Z,11.27
2022-11-23T16:23:35.905Z,9.68
2022-11-23T16:26:04.931Z,10.63
2022-11-23T16:28:33.100Z,11.13
2022-11-23T16:31:00.756Z,11.02
2022-11-23T16:33:28.633Z,10.50
2022-11-23T16:35:55.810Z,10.90
2022-11-23T16:38:23.275Z,10.65
2022-11-23T16:40:50.572Z,9.90
2022-11-23T16:43:18.321Z,10.65
2022-11-23T16:45:46.933Z,9.88
2022-11-23T16:48:26.292Z,10.38
2022-11-23T16:50:57.206Z,10.10
2022-11-23T16:53:47.159Z,9.68
2022-11-23T16:56:21.493Z,9.52
2022-11-23T16:58:49.037Z,9.93
2022-11-23T17:01:23.859Z,9.98
2022-11-23T17:03:51.411Z,10.07
2022-11-23T17:06:22.816Z,10.45
2022-11-23T17:08:56.602Z,10.73
2022-11-23T17:11:28.157Z,10.20
2022-11-23T17:13:56.126Z,9.88
2022-11-23T17:16:24.420Z,10.52
2022-11-23T17:18:51.676Z,9.45
2022-11-23T17:21:19.040Z,9.38
2022-11-23T17:23:46.838Z,9.63
2022-11-23T17:26:29.138Z,9.88
2022-11-23T17:28:56.617Z,9.10
2022-11-23T17:31:24.071Z,8.90
2022-11-23T17:33:51.310Z,9.60
2022-11-23T17:36:18.594Z,9.45
2022-11-23T17:38:47.278Z,9.30
2022-11-23T17:41:15.105Z,9.45
2022-11-23T17:43:42.554Z,8.85
2022-11-23T17:46:16.956Z,8.63
2022-11-23T17:48:44.329Z,8.68
2022-11-23T17:51:12.988Z,10.32
2022-11-23T17:53:40.506Z,9.93
2022-11-23T17:56:12.433Z,9.48
2022-11-23T17:58:39.612Z,10.48
2022-11-23T18:01:06.855Z,9.52
2022-11-23T18:03:34.159Z,9.85
2022-11-23T18:06:01.430Z,9.40
2022-11-23T18:08:28.695Z,9.38
2022-11-23T18:10:59.073Z,8.82
2022-11-23T18:13:27.231Z,8.38
2022-11-23T18:15:54.519Z,8.85
2022-11-23T18:18:21.750Z,8.60
2022-11-23T18:20:49.039Z,8.18
2022-11-23T18:23:16.162Z,9.27
2022-11-23T18:25:45.338Z,9.07
2022-11-23T18:28:12.648Z,9.90
2022-11-23T18:30:39.834Z,8.93
2022-11-23T18:33:07.361Z,8.85
2022-11-23T18:35:34.530Z,8.85
2022-11-23T18:38:01.692Z,8.80
2022-11-23T18:40:28.808Z,9.43
2022-11-23T18:42:57.888Z,8.57
2022-11-23T18:45:25.245Z,9.38
2022-11-23T18:47:52.391Z,9.57
2022-11-23T18:50:19.523Z,9.68
2022-11-23T18:52:46.766Z,9.40
2022-11-23T18:55:14.521Z,8.65
2022-11-23T18:57:41.797Z,8.82
2022-11-23T19:00:11.125Z,8.90
2022-11-23T19:02:38.741Z,8.18
2022-11-23T19:05:11.194Z,8.10
2022-11-23T19:07:38.396Z,9.88
2022-11-23T19:10:05.649Z,9.10
2022-11-23T19:12:32.815Z,8.90
2022-11-23T19:15:00.060Z,9.18
2022-11-23T19:17:27.301Z,8.60
2022-11-23T19:19:54.528Z,8.30
2022-11-23T19:22:21.761Z,8.68
2022-11-23T19:24:49.207Z,8.85
2022-11-23T19:27:16.357Z,8.75
2022-11-23T19:29:43.455Z,8.75
2022-11-23T19:32:10.589Z,8.32
2022-11-23T19:34:37.771Z,8.25
2022-11-23T19:37:05.076Z,7.53
2022-11-23T19:39:32.520Z,7.68
2022-11-23T19:41:59.910Z,7.90
2022-11-23T19:44:27.061Z,8.63
2022-11-23T19:46:54.543Z,8.45
2022-11-23T19:49:21.760Z,8.35
2022-11-23T19:51:52.238Z,7.88
2022-11-23T19:54:19.459Z,7.72
2022-11-23T19:56:46.572Z,7.78
2022-11-23T19:59:13.755Z,8.40
2022-11-23T20:01:40.969Z,8.48
2022-11-23T20:04:09.858Z,7.93
2022-11-23T20:06:37.723Z,7.50
2022-11-23T20:09:07.091Z,7.97
2022-11-23T20:11:34.833Z,7.85
2022-11-23T20:14:02.033Z,7.75
2022-11-23T20:16:31.170Z,8.23
2022-11-23T20:18:59.467Z,7.25
2022-11-23T20:21:27.357Z,7.90
2022-11-23T20:24:03.009Z,7.78
2022-11-23T20:26:31.780Z,8.70
2022-11-23T20:28:59.432Z,7.30
2022-11-23T20:31:27.434Z,7.65
2022-11-23T20:33:54.919Z,7.47
2022-11-23T20:36:22.314Z,7.30
2022-11-23T20:38:49.855Z,8.23
2022-11-23T20:41:17.078Z,7.80
2022-11-23T20:43:45.077Z,8.60
2022-11-23T20:46:12.529Z,7.05
2022-11-23T20:48:40.674Z,8.52
2022-11-23T20:51:10.660Z,7.65
2022-11-23T20:53:38.046Z,8.52
2022-11-23T20:56:06.154Z,7.43
2022-11-23T20:58:34.890Z,6.88
2022-11-23T21:01:05.648Z,7.50
2022-11-23T21:03:33.661Z,6.82
2022-11-23T21:06:08.701Z,7.63
2022-11-23T21:08:36.201Z,6.93
2022-11-23T21:11:48.468Z,7.43
2022-11-23T21:14:18.225Z,6.88
2022-11-23T21:16:52.787Z,6.68
2022-11-23T21:19:21.132Z,7.07
2022-11-23T21:21:48.787Z,6.80
2022-11-23T21:24:15.985Z,6.30
2022-11-23T21:26:43.309Z,7.25
2022-11-23T21:29:11.619Z,6.30
2022-11-23T21:31:43.483Z,6.68
2022-11-23T21:34:20.867Z,7.05
2022-11-23T21:36:49.507Z,6.65
2022-11-23T21:39:17.346Z,6.97
2022-11-23T21:41:44.866Z,6.97
2022-11-23T21:44:12.503Z,8.18
2022-11-23T21:46:40.776Z,6.97
2022-11-23T21:49:08.466Z,6.88
2022-11-23T21:51:36.227Z,6.78
2022-11-23T21:54:07.329Z,7.10
2022-11-23T21:56:34.691Z,6.70
2022-11-23T21:59:02.062Z,7.05
2022-11-23T22:01:33.087Z,6.97
2022-11-23T22:04:04.606Z,7.47
2022-11-23T22:06:31.910Z,7.05
2022-11-23T22:09:02.241Z,7.78
2022-11-23T22:11:30.363Z,6.95
2022-11-23T22:14:02.083Z,7.88
2022-11-23T22:16:30.325Z,7.55
2022-11-23T22:18:57.936Z,7.68
2022-11-23T22:21:26.142Z,6.82
2022-11-23T22:23:53.404Z,7.80
2022-11-23T22:26:21.181Z,6.43
2022-11-23T22:28:49.836Z,7.35
2022-11-23T22:31:18.783Z,6.70
2022-11-23T22:33:46.426Z,6.72
2022-11-23T22:36:23.607Z,7.28
2022-11-23T22:39:01.947Z,7.53
2022-11-23T22:41:29.847Z,6.45
2022-11-23T22:43:57.480Z,5.70
2022-11-23T22:46:25.708Z,7.72
2022-11-23T22:48:53.408Z,6.90
2022-11-23T22:51:21.747Z,5.88
2022-11-23T22:53:49.245Z,6.35
2022-11-23T22:56:17.667Z,6.60
2022-11-23T22:58:48.073Z,6.35
2022-11-23T23:01:16.911Z,6.07
2022-11-23T23:03:44.629Z,6.03
2022-11-23T23:06:15.461Z,6.20
2022-11-23T23:08:42.626Z,6.50
2022-11-23T23:11:09.773Z,6.13
2022-11-23T23:13:37.129Z,5.43
2022-11-23T23:16:06.013Z,5.97
2022-11-23T23:18:33.284Z,5.65
2022-11-23T23:21:01.253Z,6.35
2022-11-23T23:23:28.435Z,5.95
2022-11-23T23:25:55.605Z,5.95
2022-11-23T23:28:23.483Z,5.68
2022-11-23T23:30:50.655Z,6.85
2022-11-23T23:33:17.872Z,6.05
2022-11-23T23:35:45.022Z,6.05
2022-11-23T23:38:12.168Z,6.30
2022-11-23T23:40:39.659Z,6.22
2022-11-23T23:43:06.800Z,5.68
2022-11-23T23:45:34.058Z,6.05
2022-11-23T23:48:01.189Z,5.63
2022-11-23T23:50:28.316Z,5.43
2022-11-23T23:52:55.457Z,6.65
2022-11-23T23:55:22.661Z,5.82
2022-11-23T23:57:50.182Z,5.90
